Capt Eddie — WDC3053 — position and weather

sailwx.info

Track history (hours):
 
Tides and Currents Weather Stations Pressure Air Temp Water Temp Dewpoint Dewpoint Depression Visibility Wind Speed Wind Dir Waves Ship Positions

Capt Eddie

Owner: CENTRAL BOAT RENTALS, BERWICK, LA. More information available from US FCC via Universal Licensing System and Coast Guard Vessel Documentation Center.

Last reported at 2017-Dec-25 03:22 UTC. Time now 2018-Jan-19 01:27 UTC.
Position N 29°32' W 090°50'.
Warning: this ship's position is 24 days out of date.

Length 20 m; draft 2 m.

Type: Tug. MMSI: 367002050.

Date/timePositionNaut miles runAvg speedWind from/ knotsBaromVisibWave heightAir tempDewpointWater temp
2017-Dec-25 03:22N 29°32' W 090°50'3 6.3
2017-Dec-25 02:57N 29°32' W 090°47'3 5.7
2017-Dec-25 02:31N 29°34' W 090°45'2 4.3
2017-Dec-25 02:01N 29°33' W 090°42'3 6.2
2017-Dec-25 01:31N 29°30' W 090°43'5 0.2
2017-Dec-23 20:58N 29°25' W 090°44'4 8.2
2017-Dec-23 20:30N 29°28' W 090°43'4 8.1
2017-Dec-23 20:00N 29°32' W 090°42'2 3.6
2017-Dec-23 19:29N 29°34' W 090°44'0 0.4
2017-Dec-23 19:00N 29°34' W 090°44'2 4.2
2017-Dec-23 18:30N 29°32' W 090°46'4 7.4
2017-Dec-23 18:00N 29°32' W 090°50'4 7.5
2017-Dec-23 17:28N 29°33' W 090°54'  
Track history (hours):
 
Tides and Currents Weather Stations Pressure Air Temp Water Temp Dewpoint Dewpoint Depression Visibility Wind Speed Wind Dir Waves Ship Positions

Capt Eddie

Owner: CENTRAL BOAT RENTALS, BERWICK, LA. More information available from US FCC via Universal Licensing System and Coast Guard Vessel Documentation Center.

Last reported at 2017-Dec-25 03:22 UTC. Time now 2018-Jan-19 01:27 UTC.
Position N 29°32' W 090°50'.
Warning: this ship's position is 24 days out of date.

Length 20 m; draft 2 m.

Type: Tug. MMSI: 367002050.

Date/timePositionNaut miles runAvg speedWind from/ knotsBaromVisibWave heightAir tempDewpointWater temp
2017-Dec-25 03:22N 29°32' W 090°50'3 6.3
2017-Dec-25 02:57N 29°32' W 090°47'3 5.7
2017-Dec-25 02:31N 29°34' W 090°45'2 4.3
2017-Dec-25 02:01N 29°33' W 090°42'3 6.2
2017-Dec-25 01:31N 29°30' W 090°43'5 0.2
2017-Dec-23 20:58N 29°25' W 090°44'4 8.2
2017-Dec-23 20:30N 29°28' W 090°43'4 8.1
2017-Dec-23 20:00N 29°32' W 090°42'2 3.6
2017-Dec-23 19:29N 29°34' W 090°44'0 0.4
2017-Dec-23 19:00N 29°34' W 090°44'2 4.2
2017-Dec-23 18:30N 29°32' W 090°46'4 7.4
2017-Dec-23 18:00N 29°32' W 090°50'4 7.5
2017-Dec-23 17:28N 29°33' W 090°54'  

Dump ship's entire track history